createdAt,value
2022-08-26T00:00:26.404Z,19.95
2022-08-26T00:02:53.041Z,19.94
2022-08-26T00:05:19.270Z,19.91
2022-08-26T00:07:45.444Z,19.89
2022-08-26T00:10:11.618Z,19.86
2022-08-26T00:12:37.909Z,19.84
2022-08-26T00:15:04.161Z,19.80
2022-08-26T00:17:30.335Z,19.81
2022-08-26T00:19:56.510Z,19.82
2022-08-26T00:22:22.662Z,19.78
2022-08-26T00:24:49.006Z,19.77
2022-08-26T00:27:15.158Z,19.71
2022-08-26T00:29:41.908Z,19.71
2022-08-26T00:32:10.057Z,19.67
2022-08-26T00:34:37.677Z,19.62
2022-08-26T00:37:03.830Z,19.61
2022-08-26T00:39:35.271Z,19.64
2022-08-26T00:42:01.459Z,19.65
2022-08-26T00:44:28.421Z,19.62
2022-08-26T00:46:54.577Z,19.58
2022-08-26T00:49:20.784Z,19.52
2022-08-26T00:51:46.942Z,19.53
2022-08-26T00:54:13.092Z,19.56
2022-08-26T00:56:39.251Z,19.54
2022-08-26T00:59:05.401Z,19.51
2022-08-26T01:01:31.631Z,19.59
2022-08-26T01:03:57.867Z,19.60
2022-08-26T01:06:24.010Z,19.58
2022-08-26T01:08:50.151Z,19.51
2022-08-26T01:11:16.356Z,19.49
2022-08-26T01:13:42.747Z,19.44
2022-08-26T01:16:08.961Z,19.44
2022-08-26T01:18:36.732Z,19.40
2022-08-26T01:21:03.295Z,19.38
2022-08-26T01:23:29.445Z,19.36
2022-08-26T01:25:55.595Z,19.30
2022-08-26T01:28:22.003Z,19.27
2022-08-26T01:30:48.183Z,19.27
2022-08-26T01:33:14.347Z,19.21
2022-08-26T01:35:40.520Z,19.20
2022-08-26T01:38:06.700Z,19.17
2022-08-26T01:40:33.285Z,19.16
2022-08-26T01:42:59.509Z,19.11
2022-08-26T01:45:25.734Z,19.09
2022-08-26T01:47:56.999Z,19.07
2022-08-26T01:50:27.873Z,19.08
2022-08-26T01:52:56.552Z,19.11
2022-08-26T01:55:32.203Z,19.11
2022-08-26T01:57:58.794Z,19.16
2022-08-26T02:00:24.957Z,19.11
2022-08-26T02:02:53.415Z,19.13
2022-08-26T02:05:19.590Z,19.09
2022-08-26T02:07:45.741Z,19.08
2022-08-26T02:10:12.114Z,19.08
2022-08-26T02:12:38.297Z,19.10
2022-08-26T02:15:05.707Z,19.01
2022-08-26T02:17:32.070Z,18.98
2022-08-26T02:20:00.193Z,18.97
2022-08-26T02:22:26.389Z,18.95
2022-08-26T02:24:52.588Z,18.91
2022-08-26T02:27:18.764Z,18.86
2022-08-26T02:29:44.929Z,18.81
2022-08-26T02:32:11.097Z,18.79
2022-08-26T02:34:40.683Z,18.72
2022-08-26T02:37:07.768Z,18.73
2022-08-26T02:39:33.996Z,18.74
2022-08-26T02:42:00.172Z,18.74
2022-08-26T02:44:26.348Z,18.74
2022-08-26T02:46:52.538Z,18.71
2022-08-26T02:49:20.375Z,18.70
2022-08-26T02:51:46.537Z,18.69
2022-08-26T02:54:12.720Z,18.64
2022-08-26T02:56:38.901Z,18.58
2022-08-26T02:59:05.396Z,18.55
2022-08-26T03:01:31.668Z,18.59
2022-08-26T03:03:57.923Z,18.59
2022-08-26T03:06:24.076Z,18.54
2022-08-26T03:08:50.298Z,18.49
2022-08-26T03:11:16.454Z,18.46
2022-08-26T03:13:42.594Z,18.40
2022-08-26T03:16:08.865Z,18.34
2022-08-26T03:18:35.559Z,18.33
2022-08-26T03:21:01.704Z,18.27
2022-08-26T03:23:27.913Z,18.25
2022-08-26T03:25:54.839Z,18.27
2022-08-26T03:28:22.231Z,18.25
2022-08-26T03:30:48.396Z,18.23
2022-08-26T03:33:15.080Z,18.19
2022-08-26T03:35:41.243Z,18.19
2022-08-26T03:38:07.438Z,18.21
2022-08-26T03:40:33.943Z,18.22
2022-08-26T03:43:00.198Z,18.27
2022-08-26T03:45:28.256Z,18.27
2022-08-26T03:47:54.433Z,18.28
2022-08-26T03:50:24.374Z,18.25
2022-08-26T03:52:50.605Z,18.26
2022-08-26T03:55:16.780Z,18.23
2022-08-26T03:57:43.873Z,18.20
2022-08-26T04:00:10.274Z,18.17
2022-08-26T04:02:36.496Z,18.18
2022-08-26T04:05:02.693Z,18.23
2022-08-26T04:07:29.751Z,18.21
2022-08-26T04:09:58.277Z,18.19
2022-08-26T04:12:24.434Z,18.18
2022-08-26T04:14:50.710Z,18.17
2022-08-26T04:17:19.949Z,18.15
2022-08-26T04:19:51.198Z,18.13
2022-08-26T04:22:24.013Z,18.12
2022-08-26T04:24:51.207Z,18.09
2022-08-26T04:27:17.791Z,18.10
2022-08-26T04:29:43.945Z,18.11
2022-08-26T04:32:10.276Z,18.10
2022-08-26T04:34:36.452Z,18.08
2022-08-26T04:37:02.624Z,18.07
2022-08-26T04:39:28.791Z,18.09
2022-08-26T04:41:54.965Z,18.09
2022-08-26T04:44:21.134Z,18.10
2022-08-26T04:46:47.778Z,18.13
2022-08-26T04:49:15.204Z,18.13
2022-08-26T04:51:41.381Z,18.21
2022-08-26T04:54:10.133Z,18.25
2022-08-26T04:56:37.571Z,18.30
2022-08-26T04:59:03.743Z,18.34
2022-08-26T05:01:33.646Z,18.43
2022-08-26T05:04:08.067Z,18.52
2022-08-26T05:06:36.940Z,18.61
2022-08-26T05:09:03.438Z,18.74
2022-08-26T05:11:29.594Z,18.87
2022-08-26T05:13:58.161Z,18.93
2022-08-26T05:16:27.932Z,18.95
2022-08-26T05:18:54.324Z,19.00
2022-08-26T05:21:20.513Z,19.04
2022-08-26T05:23:46.672Z,19.01
2022-08-26T05:26:15.643Z,19.02
2022-08-26T05:28:42.715Z,19.04
2022-08-26T05:31:08.931Z,19.05
2022-08-26T05:33:35.115Z,19.07
2022-08-26T05:36:01.312Z,19.13
2022-08-26T05:38:30.492Z,19.18
2022-08-26T05:40:56.760Z,19.21
2022-08-26T05:43:22.941Z,19.26
2022-08-26T05:45:49.103Z,19.37
2022-08-26T05:48:16.122Z,19.48
2022-08-26T05:50:42.408Z,19.56
2022-08-26T05:53:09.345Z,19.64
2022-08-26T05:55:35.737Z,19.70
2022-08-26T05:58:02.756Z,19.77
2022-08-26T06:00:29.022Z,19.83
2022-08-26T06:02:55.285Z,19.89
2022-08-26T06:05:21.459Z,19.92
2022-08-26T06:07:48.215Z,19.98
2022-08-26T06:10:31.424Z,20.04
2022-08-26T06:12:58.095Z,20.12
2022-08-26T06:15:24.333Z,20.19
2022-08-26T06:17:50.493Z,20.42
2022-08-26T06:20:16.652Z,20.57
2022-08-26T06:22:43.526Z,20.91
2022-08-26T06:25:09.896Z,21.27
2022-08-26T06:27:36.246Z,21.47
2022-08-26T06:30:02.630Z,21.83
2022-08-26T06:32:28.885Z,22.18
2022-08-26T06:34:55.582Z,22.56
2022-08-26T06:37:21.936Z,22.93
2022-08-26T06:39:48.239Z,23.22
2022-08-26T06:42:17.413Z,23.44
2022-08-26T06:44:44.687Z,23.72
2022-08-26T06:47:11.064Z,23.94
2022-08-26T06:49:37.225Z,23.98
2022-08-26T06:52:03.420Z,24.18
2022-08-26T06:54:29.615Z,24.35
2022-08-26T06:56:55.805Z,24.59
2022-08-26T06:59:22.342Z,24.78
2022-08-26T07:01:48.571Z,24.93
2022-08-26T07:04:16.038Z,25.09
2022-08-26T07:06:48.031Z,25.11
2022-08-26T07:09:14.400Z,25.29
2022-08-26T07:11:43.571Z,25.37
2022-08-26T07:14:09.778Z,25.27
2022-08-26T07:16:35.990Z,25.37
2022-08-26T07:19:03.353Z,25.51
2022-08-26T07:21:36.715Z,25.62
2022-08-26T07:24:02.926Z,25.56
2022-08-26T07:28:56.221Z,25.53
2022-08-26T07:31:22.512Z,25.25
2022-08-26T07:33:48.749Z,25.11
2022-08-26T07:36:14.974Z,25.05
2022-08-26T07:38:41.133Z,24.90
2022-08-26T07:41:08.160Z,24.76
2022-08-26T07:43:34.517Z,24.58
2022-08-26T07:46:00.830Z,24.79
2022-08-26T07:48:27.028Z,24.85
2022-08-26T07:50:53.192Z,24.87
2022-08-26T07:53:19.471Z,24.91
2022-08-26T07:55:45.674Z,24.84
2022-08-26T07:58:11.957Z,24.78
2022-08-26T08:00:38.116Z,24.69
2022-08-26T08:03:04.311Z,24.57
2022-08-26T08:05:33.315Z,24.56
2022-08-26T08:08:00.846Z,24.59
2022-08-26T08:10:48.792Z,24.59
2022-08-26T08:13:15.156Z,24.52
2022-08-26T08:15:41.367Z,24.54
2022-08-26T08:18:15.662Z,24.70
2022-08-26T08:20:44.690Z,25.02
2022-08-26T08:23:13.764Z,25.25
2022-08-26T08:25:40.565Z,25.64
2022-08-26T08:28:06.898Z,25.88
2022-08-26T08:30:34.970Z,26.29
2022-08-26T08:33:01.300Z,26.21
2022-08-26T08:35:28.056Z,26.21
2022-08-26T08:37:56.160Z,26.43
2022-08-26T08:40:23.106Z,26.06
2022-08-26T08:45:22.169Z,25.81
2022-08-26T08:47:48.619Z,25.66
2022-08-26T08:50:14.809Z,25.66
2022-08-26T08:52:41.034Z,25.63
2022-08-26T08:55:10.966Z,25.61
2022-08-26T08:57:38.878Z,25.46
2022-08-26T09:00:05.307Z,25.73
2022-08-26T09:02:31.496Z,25.80
2022-08-26T09:04:57.699Z,25.99
2022-08-26T09:07:24.554Z,25.95
2022-08-26T09:09:50.804Z,25.88
2022-08-26T09:12:17.140Z,25.95
2022-08-26T09:14:46.085Z,26.03
2022-08-26T09:17:12.340Z,26.15
2022-08-26T09:19:38.544Z,26.37
2022-08-26T09:22:08.820Z,26.63
2022-08-26T09:24:40.894Z,26.93
2022-08-26T09:27:08.396Z,27.19
2022-08-26T09:29:37.720Z,27.25
2022-08-26T09:32:03.893Z,27.04
2022-08-26T09:34:30.077Z,26.87
2022-08-26T09:36:56.261Z,27.05
2022-08-26T09:39:22.423Z,27.05
2022-08-26T09:41:48.618Z,27.01
2022-08-26T09:44:15.595Z,27.13
2022-08-26T09:46:41.914Z,27.06
2022-08-26T09:49:08.425Z,27.13
2022-08-26T09:51:34.620Z,27.22
2022-08-26T09:54:00.849Z,27.58
2022-08-26T09:56:27.540Z,27.84
2022-08-26T09:58:53.970Z,28.10
2022-08-26T10:01:20.203Z,28.37
2022-08-26T10:03:47.100Z,28.35
2022-08-26T10:06:15.184Z,28.33
2022-08-26T10:08:41.958Z,28.64
2022-08-26T10:11:10.332Z,28.79
2022-08-26T10:13:36.502Z,28.58
2022-08-26T10:16:02.650Z,28.35
2022-08-26T10:18:34.369Z,28.95
2022-08-26T10:21:00.976Z,29.21
2022-08-26T10:23:27.659Z,29.53
2022-08-26T10:25:53.878Z,29.74
2022-08-26T10:28:23.172Z,29.83
2022-08-26T10:30:49.326Z,29.74
2022-08-26T10:33:17.968Z,30.34
2022-08-26T10:35:44.430Z,30.42
2022-08-26T10:38:10.842Z,30.75
2022-08-26T10:40:37.250Z,30.77
2022-08-26T10:43:07.211Z,31.02
2022-08-26T10:45:36.283Z,31.04
2022-08-26T10:48:02.527Z,30.84
2022-08-26T10:50:28.718Z,30.99
2022-08-26T10:52:54.879Z,31.15
2022-08-26T10:55:21.073Z,31.25
2022-08-26T10:57:47.233Z,30.88
2022-08-26T11:00:13.476Z,30.89
2022-08-26T11:02:41.224Z,31.15
2022-08-26T11:05:13.412Z,31.29
2022-08-26T11:07:39.559Z,31.17
2022-08-26T11:10:05.801Z,30.99
2022-08-26T11:12:32.763Z,31.13
2022-08-26T11:14:59.405Z,31.43
2022-08-26T11:17:25.596Z,31.32
2022-08-26T11:20:01.431Z,31.61
2022-08-26T11:22:28.910Z,31.93
2022-08-26T11:24:55.066Z,31.92
2022-08-26T11:27:21.293Z,31.43
2022-08-26T11:29:47.462Z,31.82
2022-08-26T11:32:13.901Z,31.87
2022-08-26T11:34:40.084Z,31.68
2022-08-26T11:37:06.247Z,31.96
2022-08-26T11:39:36.544Z,31.96
2022-08-26T11:42:03.179Z,32.02
2022-08-26T11:44:29.345Z,32.22
2022-08-26T11:46:55.580Z,32.16
2022-08-26T11:49:21.808Z,32.41
2022-08-26T11:51:48.385Z,32.25
2022-08-26T11:54:14.624Z,32.22
2022-08-26T11:56:42.183Z,32.32
2022-08-26T11:59:08.389Z,32.13
2022-08-26T12:01:34.731Z,32.22
2022-08-26T12:04:01.101Z,32.18
2022-08-26T12:08:53.553Z,32.73
2022-08-26T12:11:19.731Z,32.76
2022-08-26T12:13:45.907Z,32.50
2022-08-26T12:16:13.216Z,32.41
2022-08-26T12:18:40.003Z,32.81
2022-08-26T12:21:06.192Z,33.20
2022-08-26T12:23:32.366Z,33.13
2022-08-26T12:25:58.563Z,33.10
2022-08-26T12:28:24.724Z,33.04
2022-08-26T12:30:50.901Z,33.23
2022-08-26T12:33:22.665Z,33.18
2022-08-26T12:35:51.559Z,33.30
2022-08-26T12:38:21.105Z,33.39
2022-08-26T12:40:47.266Z,33.24
2022-08-26T12:43:13.452Z,33.22
2022-08-26T12:45:39.639Z,33.14
2022-08-26T12:50:59.135Z,32.99
2022-08-26T12:53:25.294Z,32.80
2022-08-26T12:55:51.452Z,33.03
2022-08-26T12:58:17.651Z,32.94
2022-08-26T13:00:43.923Z,32.86
2022-08-26T13:03:10.298Z,32.93
2022-08-26T13:05:36.623Z,32.87
2022-08-26T13:08:02.801Z,32.61
2022-08-26T13:10:31.070Z,32.46
2022-08-26T13:12:57.335Z,32.77
2022-08-26T13:15:23.501Z,32.89
2022-08-26T13:17:49.698Z,33.10
2022-08-26T13:20:15.858Z,33.20
2022-08-26T13:25:13.147Z,33.16
2022-08-26T13:27:39.360Z,33.32
2022-08-26T13:30:05.533Z,33.24
2022-08-26T13:32:33.322Z,33.10
2022-08-26T13:34:59.719Z,33.11
2022-08-26T13:37:34.474Z,33.29
2022-08-26T13:40:01.591Z,33.17
2022-08-26T13:42:27.806Z,33.33
2022-08-26T13:44:53.965Z,33.43
2022-08-26T13:47:20.155Z,33.65
2022-08-26T13:49:46.341Z,33.71
2022-08-26T13:52:12.506Z,33.91
2022-08-26T13:54:38.689Z,33.91
2022-08-26T13:57:04.880Z,33.94
2022-08-26T13:59:31.058Z,33.91
2022-08-26T14:01:57.226Z,33.96
2022-08-26T14:04:27.063Z,33.63
2022-08-26T14:06:53.613Z,33.49
2022-08-26T14:09:19.815Z,33.54
2022-08-26T14:11:50.845Z,33.73
2022-08-26T14:14:20.867Z,33.84
2022-08-26T14:16:58.928Z,33.57
2022-08-26T14:19:26.436Z,33.24
2022-08-26T14:21:52.647Z,33.35
2022-08-26T14:24:18.793Z,33.40
2022-08-26T14:26:44.941Z,33.61
2022-08-26T14:29:14.627Z,33.89
2022-08-26T14:31:42.801Z,33.79
2022-08-26T14:34:08.998Z,34.18
2022-08-26T14:36:35.193Z,34.09
2022-08-26T14:39:01.377Z,34.22
2022-08-26T14:41:27.556Z,34.33
2022-08-26T14:43:53.731Z,34.25
2022-08-26T14:46:19.936Z,34.35
2022-08-26T14:48:46.139Z,34.54
2022-08-26T14:51:12.357Z,34.36
2022-08-26T14:53:38.521Z,33.96
2022-08-26T14:56:04.714Z,33.61
2022-08-26T14:58:34.951Z,33.10
2022-08-26T15:01:04.176Z,32.81
2022-08-26T15:03:30.630Z,32.79
2022-08-26T15:05:56.801Z,32.60
2022-08-26T15:08:23.016Z,32.58
2022-08-26T15:10:49.185Z,32.43
2022-08-26T15:13:15.343Z,32.46
2022-08-26T15:15:41.555Z,32.37
2022-08-26T15:18:07.920Z,32.05
2022-08-26T15:20:34.221Z,31.68
2022-08-26T15:23:03.795Z,31.47
2022-08-26T15:25:32.463Z,31.49
2022-08-26T15:27:58.646Z,31.74
2022-08-26T15:30:24.800Z,31.83
2022-08-26T15:32:50.963Z,32.10
2022-08-26T15:35:17.143Z,31.98
2022-08-26T15:37:43.354Z,31.44
2022-08-26T15:40:09.594Z,30.97
2022-08-26T15:42:35.795Z,30.50
2022-08-26T15:45:02.021Z,30.25
2022-08-26T15:47:28.225Z,30.17
2022-08-26T15:49:54.729Z,30.00
2022-08-26T15:52:20.882Z,29.75
2022-08-26T15:54:47.048Z,29.48
2022-08-26T15:57:15.308Z,29.14
2022-08-26T15:59:42.655Z,28.69
2022-08-26T16:02:08.875Z,28.35
2022-08-26T16:04:35.074Z,28.25
2022-08-26T16:07:01.262Z,28.11
2022-08-26T16:09:27.452Z,28.24
2022-08-26T16:11:53.638Z,27.95
2022-08-26T16:14:19.805Z,27.75
2022-08-26T16:16:45.958Z,27.72
2022-08-26T16:19:12.102Z,27.81
2022-08-26T16:21:38.302Z,28.13
2022-08-26T16:24:04.476Z,28.60
2022-08-26T16:26:30.637Z,28.81
2022-08-26T16:28:56.818Z,29.02
2022-08-26T16:31:23.009Z,29.04
2022-08-26T16:33:49.254Z,29.05
2022-08-26T16:36:15.400Z,28.96
2022-08-26T16:38:41.556Z,28.85
2022-08-26T16:41:07.742Z,28.77
2022-08-26T16:43:33.912Z,28.67
2022-08-26T16:46:00.127Z,28.47
2022-08-26T16:48:27.526Z,28.18
2022-08-26T16:50:53.685Z,27.94
2022-08-26T16:53:19.866Z,27.90
2022-08-26T16:55:46.049Z,27.65
2022-08-26T16:58:12.478Z,27.51
2022-08-26T17:00:38.687Z,27.28
2022-08-26T17:03:04.927Z,27.17
2022-08-26T17:05:31.081Z,27.06
2022-08-26T17:07:57.261Z,26.98
2022-08-26T17:10:23.439Z,26.87
2022-08-26T17:12:49.608Z,26.93
2022-08-26T17:15:15.767Z,26.90
2022-08-26T17:17:41.952Z,26.83
2022-08-26T17:20:08.102Z,26.74
2022-08-26T17:22:34.800Z,26.57
2022-08-26T17:25:01.033Z,26.51
2022-08-26T17:27:27.189Z,26.47
2022-08-26T17:29:53.348Z,26.48
2022-08-26T17:32:19.545Z,26.51
2022-08-26T17:34:45.707Z,26.47
2022-08-26T17:37:11.872Z,26.47
2022-08-26T17:39:38.051Z,26.43
2022-08-26T17:42:04.211Z,26.36
2022-08-26T17:44:30.390Z,26.37
2022-08-26T17:46:56.565Z,26.29
2022-08-26T17:49:22.763Z,26.24
2022-08-26T17:51:48.971Z,26.20
2022-08-26T17:54:15.199Z,26.16
2022-08-26T17:56:41.356Z,26.16
2022-08-26T17:59:07.628Z,26.14
2022-08-26T18:01:33.872Z,26.09
2022-08-26T18:04:00.952Z,26.07
2022-08-26T18:06:27.455Z,26.05
2022-08-26T18:08:53.605Z,25.99
2022-08-26T18:11:22.368Z,25.91
2022-08-26T18:13:48.543Z,25.92
2022-08-26T18:16:14.748Z,25.88
2022-08-26T18:18:40.949Z,25.87
2022-08-26T18:21:07.172Z,25.84
2022-08-26T18:23:33.359Z,25.83
2022-08-26T18:25:59.507Z,25.84
2022-08-26T18:28:25.709Z,25.82
2022-08-26T18:30:51.921Z,25.75
2022-08-26T18:33:18.111Z,25.72
2022-08-26T18:35:44.321Z,25.68
2022-08-26T18:38:11.705Z,25.61
2022-08-26T18:40:38.136Z,25.62
2022-08-26T18:43:04.323Z,25.57
2022-08-26T18:45:30.503Z,25.52
2022-08-26T18:47:56.667Z,25.51
2022-08-26T18:50:22.876Z,25.46
2022-08-26T18:52:49.032Z,25.48
2022-08-26T18:55:15.186Z,25.48
2022-08-26T18:57:41.384Z,25.46
2022-08-26T19:00:07.539Z,25.45
2022-08-26T19:02:33.767Z,25.41
2022-08-26T19:05:00.014Z,25.39
2022-08-26T19:07:26.286Z,25.28
2022-08-26T19:09:53.845Z,25.27
2022-08-26T19:12:20.360Z,25.18
2022-08-26T19:14:46.552Z,25.17
2022-08-26T19:17:12.856Z,25.13
2022-08-26T19:19:39.078Z,25.13
2022-08-26T19:22:05.302Z,25.12
2022-08-26T19:24:33.767Z,25.10
2022-08-26T19:26:59.921Z,25.09
2022-08-26T19:29:26.123Z,25.08
2022-08-26T19:31:52.354Z,25.00
2022-08-26T19:34:20.835Z,24.96
2022-08-26T19:36:47.263Z,24.91
2022-08-26T19:39:13.421Z,24.84
2022-08-26T19:41:39.635Z,24.81
2022-08-26T19:44:05.810Z,24.78
2022-08-26T19:46:32.149Z,24.76
2022-08-26T19:48:58.457Z,24.74
2022-08-26T19:51:24.636Z,24.71
2022-08-26T19:53:50.823Z,24.70
2022-08-26T19:56:17.006Z,24.70
2022-08-26T19:58:43.167Z,24.65
2022-08-26T20:01:09.424Z,24.61
2022-08-26T20:03:35.633Z,24.62
2022-08-26T20:06:01.814Z,24.57
2022-08-26T20:08:27.994Z,24.55
2022-08-26T20:10:55.918Z,24.51
2022-08-26T20:13:22.080Z,24.47
2022-08-26T20:15:49.399Z,24.37
2022-08-26T20:18:15.600Z,24.39
2022-08-26T20:20:44.804Z,24.35
2022-08-26T20:23:10.993Z,24.28
2022-08-26T20:25:37.172Z,24.30
2022-08-26T20:28:03.379Z,24.23
2022-08-26T20:30:29.577Z,24.22
2022-08-26T20:32:55.767Z,24.19
2022-08-26T20:35:21.920Z,24.18
2022-08-26T20:37:48.125Z,24.13
2022-08-26T20:40:14.361Z,24.13
2022-08-26T20:42:40.572Z,24.10
2022-08-26T20:45:06.714Z,24.10
2022-08-26T20:47:32.887Z,24.02
2022-08-26T20:49:59.092Z,23.95
2022-08-26T20:52:25.274Z,23.90
2022-08-26T20:54:51.486Z,23.96
2022-08-26T20:57:17.663Z,23.93
2022-08-26T20:59:43.860Z,23.94
2022-08-26T21:02:10.071Z,23.98
2022-08-26T21:04:36.272Z,23.96
2022-08-26T21:07:02.509Z,23.91
2022-08-26T21:09:29.086Z,23.90
2022-08-26T21:11:56.931Z,23.91
2022-08-26T21:14:23.111Z,23.83
2022-08-26T21:16:52.245Z,23.83
2022-08-26T21:19:18.424Z,23.79
2022-08-26T21:21:44.611Z,23.77
2022-08-26T21:24:10.781Z,23.77
2022-08-26T21:26:36.961Z,23.77
2022-08-26T21:29:03.161Z,23.75
2022-08-26T21:31:29.349Z,23.72
2022-08-26T21:33:55.569Z,23.69
2022-08-26T21:36:21.810Z,23.68
2022-08-26T21:38:47.994Z,23.67
2022-08-26T21:41:14.125Z,23.68
2022-08-26T21:43:40.294Z,23.72
2022-08-26T21:46:06.568Z,23.72
2022-08-26T21:48:34.529Z,23.72
2022-08-26T21:51:00.926Z,23.72
2022-08-26T21:53:27.078Z,23.71
2022-08-26T21:55:53.280Z,23.68
2022-08-26T21:58:19.443Z,23.67
2022-08-26T22:00:45.654Z,23.72
2022-08-26T22:03:11.847Z,23.73
2022-08-26T22:05:38.008Z,23.74
2022-08-26T22:08:04.164Z,23.64
2022-08-26T22:10:30.353Z,23.48
2022-08-26T22:12:56.533Z,23.35
2022-08-26T22:15:22.697Z,23.19
2022-08-26T22:17:48.856Z,23.05
2022-08-26T22:20:16.609Z,22.92
2022-08-26T22:22:43.031Z,22.88
2022-08-26T22:25:09.294Z,22.76
2022-08-26T22:27:35.460Z,22.69
2022-08-26T22:30:08.960Z,22.65
2022-08-26T22:32:37.922Z,22.61
2022-08-26T22:35:04.117Z,22.61
2022-08-26T22:37:50.248Z,22.59
2022-08-26T22:40:16.475Z,22.56
2022-08-26T22:42:42.677Z,22.60
2022-08-26T22:45:21.713Z,22.54
2022-08-26T22:47:47.972Z,22.57
2022-08-26T22:50:14.182Z,22.57
2022-08-26T22:52:40.351Z,22.49
2022-08-26T22:55:06.521Z,22.49
2022-08-26T22:57:32.704Z,22.48
2022-08-26T22:59:58.859Z,22.46
2022-08-26T23:02:25.014Z,22.50
2022-08-26T23:04:51.194Z,22.45
2022-08-26T23:07:17.384Z,22.50
2022-08-26T23:09:43.565Z,22.49
2022-08-26T23:12:09.732Z,22.42
2022-08-26T23:14:35.913Z,22.43
2022-08-26T23:17:02.145Z,22.37
2022-08-26T23:19:28.332Z,22.41
2022-08-26T23:21:54.500Z,22.36
2022-08-26T23:24:20.690Z,22.30
2022-08-26T23:26:46.845Z,22.27
2022-08-26T23:29:13.014Z,22.29
2022-08-26T23:31:39.248Z,22.30
2022-08-26T23:34:05.488Z,22.27
2022-08-26T23:36:31.672Z,22.24
2022-08-26T23:39:01.192Z,22.16
2022-08-26T23:41:27.410Z,22.14
2022-08-26T23:43:53.596Z,22.15
2022-08-26T23:46:19.760Z,22.10
2022-08-26T23:48:45.950Z,22.07
2022-08-26T23:51:12.130Z,22.02
2022-08-26T23:53:38.296Z,21.94
2022-08-26T23:56:04.453Z,21.81
2022-08-26T23:58:30.671Z,21.78
